RJAZ(METAR)
12/04 16:00
RJAZ 040700Z 27020KT 9999 FEW025 BKNXXX 15/09 Q1016 RMK A3003=
戻る
トップページへ戻る
IMOC Co,.Ltd.